createdAt,value
2022-12-06T00:02:15.530Z,100540.88
2022-12-06T00:04:42.618Z,100533.28
2022-12-06T00:07:11.778Z,100534.19
2022-12-06T00:09:39.024Z,100529.88
2022-12-06T00:12:06.187Z,100531.63
2022-12-06T00:14:33.208Z,100525.69
2022-12-06T00:17:00.300Z,100525.72
2022-12-06T00:19:27.536Z,100519.81
2022-12-06T00:21:54.949Z,100500.03
2022-12-06T00:24:23.110Z,100508.75
2022-12-06T00:26:51.299Z,100507.06
2022-12-06T00:29:21.762Z,100497.69
2022-12-06T00:31:49.541Z,100490.78
2022-12-06T00:34:17.150Z,100450.22
2022-12-06T00:36:44.270Z,100487.41
2022-12-06T00:39:16.818Z,100490.94
2022-12-06T00:41:44.524Z,100490.94
2022-12-06T00:44:12.196Z,100492.59
2022-12-06T00:46:39.627Z,100483.13
2022-12-06T00:49:08.090Z,100487.47
2022-12-06T00:51:35.977Z,100489.19
2022-12-06T00:54:03.289Z,100481.44
2022-12-06T00:56:30.653Z,100488.38
2022-12-06T00:58:57.796Z,100493.50
2022-12-06T01:01:27.517Z,100494.31
2022-12-06T01:03:57.508Z,100492.59
2022-12-06T01:06:28.303Z,100485.75
2022-12-06T01:08:57.452Z,100493.41
2022-12-06T01:11:25.908Z,100492.59
2022-12-06T01:13:53.943Z,100496.84
2022-12-06T01:16:24.444Z,100484.00
2022-12-06T01:18:56.778Z,100489.19
2022-12-06T01:21:25.076Z,100489.19
2022-12-06T01:23:53.267Z,100484.09
2022-12-06T01:26:29.423Z,100471.31
2022-12-06T01:28:59.034Z,100465.34
2022-12-06T01:31:29.685Z,100463.59
2022-12-06T01:34:01.508Z,100461.88
2022-12-06T01:36:28.589Z,100461.09
2022-12-06T01:38:57.654Z,100463.66
2022-12-06T01:41:26.729Z,100463.66
2022-12-06T01:43:55.685Z,100455.19
2022-12-06T01:46:43.374Z,100465.41
2022-12-06T01:49:19.213Z,100467.91
2022-12-06T01:52:00.189Z,100463.59
2022-12-06T01:54:27.808Z,100461.88
2022-12-06T01:56:57.237Z,100467.06
2022-12-06T01:59:25.783Z,100458.47
2022-12-06T02:01:53.471Z,100460.16
2022-12-06T02:04:21.748Z,100457.59
2022-12-06T02:06:50.641Z,100454.22
2022-12-06T02:09:18.750Z,100448.25
2022-12-06T02:11:47.564Z,100444.91
2022-12-06T02:14:20.303Z,100448.34
2022-12-06T02:17:01.373Z,100450.16
2022-12-06T02:19:43.488Z,100443.34
2022-12-06T02:22:23.374Z,100435.63
2022-12-06T02:24:50.349Z,100438.25
2022-12-06T02:27:49.577Z,100434.84
2022-12-06T02:30:28.756Z,100440.03
2022-12-06T02:33:08.453Z,100433.28
2022-12-06T02:35:39.337Z,100437.56
2022-12-06T02:38:18.778Z,100437.59
2022-12-06T02:40:50.689Z,100431.63
2022-12-06T02:43:24.377Z,100429.97
2022-12-06T02:45:57.318Z,100436.81
2022-12-06T02:48:26.674Z,100423.13
2022-12-06T02:51:04.880Z,100426.59
2022-12-06T02:53:34.359Z,100412.84
2022-12-06T02:56:02.348Z,100401.81
2022-12-06T02:58:34.091Z,100408.69
2022-12-06T03:01:03.135Z,100411.34
2022-12-06T03:03:46.693Z,100407.94
2022-12-06T03:06:22.958Z,100401.16
2022-12-06T03:09:05.282Z,100397.75
2022-12-06T03:12:18.193Z,100378.91
2022-12-06T03:14:56.169Z,100387.50
2022-12-06T03:17:40.029Z,100379.88
2022-12-06T03:20:52.077Z,100377.31
2022-12-06T03:23:26.311Z,100373.06
2022-12-06T03:25:59.977Z,100367.03
2022-12-06T03:28:29.100Z,100367.03
2022-12-06T03:31:02.687Z,100364.53
2022-12-06T03:33:32.436Z,100367.09
2022-12-06T03:36:00.622Z,100362.00
2022-12-06T03:38:54.143Z,100349.09
2022-12-06T03:41:25.897Z,100355.09
2022-12-06T03:43:53.495Z,100359.44
2022-12-06T03:46:44.530Z,100357.75
2022-12-06T03:49:17.658Z,100359.44
2022-12-06T03:51:45.532Z,100363.75
2022-12-06T03:54:13.157Z,100356.88
2022-12-06T03:56:40.199Z,100358.63
2022-12-06T03:59:11.426Z,100356.09
2022-12-06T04:01:39.409Z,100356.09
2022-12-06T04:04:06.815Z,100350.09
2022-12-06T04:06:33.864Z,100344.97
2022-12-06T04:09:19.564Z,100344.97
2022-12-06T04:11:47.198Z,100343.22
2022-12-06T04:14:14.239Z,100341.56
2022-12-06T04:16:59.762Z,100337.31
2022-12-06T04:19:26.884Z,100338.22
2022-12-06T04:22:12.608Z,100329.72
2022-12-06T04:24:39.848Z,100324.53
2022-12-06T04:27:25.728Z,100329.78
2022-12-06T04:30:11.257Z,100333.22
2022-12-06T04:32:57.049Z,100322.94
2022-12-06T04:35:42.530Z,100328.19
2022-12-06T04:38:28.228Z,100320.59
2022-12-06T04:40:55.273Z,100313.66
2022-12-06T04:43:41.051Z,100306.91
2022-12-06T04:46:09.244Z,100319.75
2022-12-06T04:48:36.478Z,100314.66
2022-12-06T04:51:03.788Z,100316.34
2022-12-06T04:53:31.075Z,100313.84
2022-12-06T04:55:58.467Z,100318.09
2022-12-06T04:58:25.512Z,100318.09
2022-12-06T05:00:54.940Z,100320.72
2022-12-06T05:03:22.079Z,100325.81
2022-12-06T05:05:49.914Z,100314.75
2022-12-06T05:08:16.972Z,100317.31
2022-12-06T05:10:48.457Z,100316.47
2022-12-06T05:13:17.620Z,100301.06
2022-12-06T05:15:52.733Z,100301.06
2022-12-06T05:18:20.140Z,100306.31
2022-12-06T05:20:47.548Z,100304.66
2022-12-06T05:23:14.992Z,100301.19
2022-12-06T05:25:42.063Z,100313.22
2022-12-06T05:28:09.428Z,100323.44
2022-12-06T05:30:36.497Z,100309.69
2022-12-06T05:33:03.533Z,100314.81
2022-12-06T05:35:30.581Z,100310.63
2022-12-06T05:37:57.558Z,100305.50
2022-12-06T05:40:24.631Z,100301.25
2022-12-06T05:42:51.760Z,100303.00
2022-12-06T05:45:19.506Z,100294.50
2022-12-06T05:47:46.559Z,100297.06
2022-12-06T05:50:13.788Z,100301.31
2022-12-06T05:52:41.276Z,100294.50
2022-12-06T05:55:08.671Z,100294.50
2022-12-06T05:57:35.757Z,100290.97
2022-12-06T06:00:04.761Z,100290.19
2022-12-06T06:02:33.657Z,100295.34
2022-12-06T06:05:00.781Z,100291.94
2022-12-06T06:07:27.879Z,100296.16
2022-12-06T06:09:54.977Z,100299.63
2022-12-06T06:12:22.064Z,100301.31
2022-12-06T06:14:50.019Z,100298.78
2022-12-06T06:17:17.342Z,100303.06
2022-12-06T06:19:47.578Z,100301.38
2022-12-06T06:22:23.286Z,100266.91
2022-12-06T06:24:51.763Z,100297.16
2022-12-06T06:27:18.908Z,100300.59
2022-12-06T06:29:45.972Z,100298.09
2022-12-06T06:32:13.943Z,100292.13
2022-12-06T06:34:41.030Z,100299.81
2022-12-06T06:37:08.025Z,100295.59
2022-12-06T06:39:35.067Z,100293.88
2022-12-06T06:42:02.178Z,100300.69
2022-12-06T06:44:29.303Z,100302.44
2022-12-06T06:46:56.315Z,100289.50
2022-12-06T06:49:23.390Z,100299.91
2022-12-06T06:51:50.990Z,100305.88
2022-12-06T06:54:18.488Z,100299.91
2022-12-06T06:56:45.545Z,100292.22
2022-12-06T06:59:12.517Z,100287.94
2022-12-06T07:01:39.675Z,100284.56
2022-12-06T07:04:06.717Z,100277.78
2022-12-06T07:06:33.684Z,100279.50
2022-12-06T07:09:00.721Z,100272.66
2022-12-06T07:11:27.741Z,100285.50
2022-12-06T07:13:54.808Z,100275.22
2022-12-06T07:16:21.963Z,100286.34
2022-12-06T07:18:49.211Z,100289.72
2022-12-06T07:21:17.330Z,100287.13
2022-12-06T07:23:44.474Z,100295.66
2022-12-06T07:26:15.286Z,100289.72
2022-12-06T07:28:44.828Z,100292.34
2022-12-06T07:31:23.468Z,100284.69
2022-12-06T07:33:55.752Z,100282.16
2022-12-06T07:36:23.874Z,100286.47
2022-12-06T07:38:55.877Z,100287.31
2022-12-06T07:41:43.784Z,100279.69
2022-12-06T07:44:38.785Z,100271.97
2022-12-06T07:47:05.845Z,100278.84
2022-12-06T07:49:32.908Z,100271.13
2022-12-06T07:52:00.591Z,100287.31
2022-12-06T07:54:27.641Z,100285.59
2022-12-06T07:56:56.490Z,100272.81
2022-12-06T07:59:24.915Z,100277.19
2022-12-06T08:01:52.910Z,100269.53
2022-12-06T08:04:20.750Z,100274.63
2022-12-06T08:06:47.810Z,100274.63
2022-12-06T08:09:15.086Z,100274.69
2022-12-06T08:11:42.166Z,100280.72
2022-12-06T08:14:11.338Z,100273.03
2022-12-06T08:16:41.385Z,100272.25
2022-12-06T08:19:08.912Z,100273.03
2022-12-06T08:21:35.903Z,100286.72
2022-12-06T08:24:04.313Z,100286.72
2022-12-06T08:26:31.379Z,100269.66
2022-12-06T08:29:00.804Z,100273.09
2022-12-06T08:31:27.936Z,100277.34
2022-12-06T08:33:54.931Z,100273.91
2022-12-06T08:36:23.919Z,100269.66
2022-12-06T08:38:52.307Z,100281.66
2022-12-06T08:41:53.230Z,100274.84
2022-12-06T08:44:20.467Z,100273.09
2022-12-06T08:46:48.042Z,100267.94
2022-12-06T08:49:16.835Z,100265.47
2022-12-06T08:51:44.607Z,100267.19
2022-12-06T08:54:14.880Z,100266.28
2022-12-06T08:56:41.949Z,100269.59
2022-12-06T08:59:09.360Z,100261.09
2022-12-06T09:01:43.408Z,100256.00
2022-12-06T09:04:12.818Z,100261.13
2022-12-06T09:06:42.177Z,100259.41
2022-12-06T09:09:10.461Z,100256.06
2022-12-06T09:11:38.490Z,100254.31
2022-12-06T09:14:07.436Z,100251.00
2022-12-06T09:16:34.602Z,100256.09
2022-12-06T09:19:01.679Z,100256.09
2022-12-06T09:21:30.754Z,100256.94
2022-12-06T09:23:59.317Z,100252.59
2022-12-06T09:26:27.742Z,100247.53
2022-12-06T09:28:56.992Z,100251.00
2022-12-06T09:31:25.214Z,100251.84
2022-12-06T09:33:52.983Z,100251.00
2022-12-06T09:36:25.897Z,100249.28
2022-12-06T09:39:11.299Z,100251.00
2022-12-06T09:41:56.369Z,100247.59
2022-12-06T09:45:01.659Z,100237.34
2022-12-06T09:47:34.698Z,100235.66
2022-12-06T09:50:32.859Z,100226.28
2022-12-06T09:53:23.201Z,100227.16
2022-12-06T09:55:55.985Z,100220.31
2022-12-06T09:58:31.729Z,100220.31
2022-12-06T10:01:07.722Z,100207.59
2022-12-06T10:04:22.847Z,100211.81
2022-12-06T10:06:49.821Z,100205.88
2022-12-06T10:10:03.671Z,100210.16
2022-12-06T10:12:57.958Z,100206.75
2022-12-06T10:15:40.523Z,100206.75
2022-12-06T10:18:40.122Z,100201.72
2022-12-06T10:21:18.353Z,100207.69
2022-12-06T10:24:08.532Z,100201.78
2022-12-06T10:26:51.667Z,100193.31
2022-12-06T10:29:40.667Z,100190.78
2022-12-06T10:32:26.074Z,100184.88
2022-12-06T10:34:56.848Z,100179.75
2022-12-06T10:37:44.875Z,100177.25
2022-12-06T10:44:13.508Z,100177.31
2022-12-06T10:47:03.934Z,100176.41
2022-12-06T10:49:39.828Z,100179.06
2022-12-06T10:52:30.155Z,100178.19
2022-12-06T10:55:02.704Z,100176.47
2022-12-06T10:57:43.210Z,100173.09
2022-12-06T11:00:20.807Z,100166.28
2022-12-06T11:03:00.580Z,100162.91
2022-12-06T11:05:34.732Z,100155.25
2022-12-06T11:08:17.931Z,100162.91
2022-12-06T11:10:46.679Z,100157.84
2022-12-06T11:13:13.635Z,100164.66
2022-12-06T11:15:49.150Z,100161.28
2022-12-06T11:18:17.903Z,100153.63
2022-12-06T11:20:53.729Z,100144.28
2022-12-06T11:23:50.999Z,100140.81
2022-12-06T11:26:31.109Z,100140.88
2022-12-06T11:29:06.094Z,100126.31
2022-12-06T11:31:36.865Z,100127.19
2022-12-06T11:34:06.582Z,100126.34
2022-12-06T11:36:33.830Z,100094.53
2022-12-06T11:39:01.208Z,100128.94
2022-12-06T11:41:33.763Z,100123.81
2022-12-06T11:44:01.008Z,100104.84
2022-12-06T11:46:29.233Z,100128.00
2022-12-06T11:49:04.018Z,100127.16
2022-12-06T11:51:31.121Z,100118.56
2022-12-06T11:54:04.434Z,100122.03
2022-12-06T11:56:39.363Z,100121.97
2022-12-06T11:59:20.739Z,100120.31
2022-12-06T12:01:52.354Z,100116.88
2022-12-06T12:04:49.750Z,100119.47
2022-12-06T12:07:19.188Z,100115.25
2022-12-06T12:09:50.920Z,100111.84
2022-12-06T12:13:01.267Z,100108.47
2022-12-06T12:15:28.373Z,100112.66
2022-12-06T12:17:58.873Z,100101.63
2022-12-06T12:20:28.848Z,100098.25
2022-12-06T12:23:05.270Z,100093.13
2022-12-06T12:25:34.922Z,100093.13
2022-12-06T12:28:03.616Z,100088.81
2022-12-06T12:30:39.279Z,100091.38
2022-12-06T12:33:06.299Z,100093.13
2022-12-06T12:35:44.987Z,100096.50
2022-12-06T12:38:11.955Z,100098.25
2022-12-06T12:40:42.611Z,100083.75
2022-12-06T12:43:12.381Z,100092.28
2022-12-06T12:46:02.776Z,100081.19
2022-12-06T12:48:30.315Z,100081.16
2022-12-06T12:51:06.488Z,100082.91
2022-12-06T12:53:38.479Z,100087.97
2022-12-06T12:56:20.910Z,100085.41
2022-12-06T12:58:51.497Z,100086.22
2022-12-06T13:01:24.374Z,100076.00
2022-12-06T13:04:18.957Z,100080.25
2022-12-06T13:06:58.427Z,100080.25
2022-12-06T13:09:28.288Z,100082.81
2022-12-06T13:12:02.609Z,100067.38
2022-12-06T13:14:30.589Z,100079.44
2022-12-06T13:17:01.052Z,100078.59
2022-12-06T13:19:36.939Z,100064.06
2022-12-06T13:22:06.610Z,100069.22
2022-12-06T13:24:36.647Z,100065.81
2022-12-06T13:27:17.946Z,100060.66
2022-12-06T13:29:58.902Z,100057.16
2022-12-06T13:32:53.254Z,100069.16
2022-12-06T13:35:22.982Z,100056.34
2022-12-06T13:38:26.135Z,100062.31
2022-12-06T13:40:55.527Z,100057.19
2022-12-06T13:43:25.317Z,100060.59
2022-12-06T13:46:12.644Z,100056.31
2022-12-06T13:48:55.371Z,100063.13
2022-12-06T13:51:31.259Z,100059.72
2022-12-06T13:54:07.206Z,100057.16
2022-12-06T13:56:34.202Z,100057.16
2022-12-06T13:59:05.130Z,100053.72
2022-12-06T14:01:44.848Z,100058.81
2022-12-06T14:04:24.155Z,100056.25
2022-12-06T14:09:50.245Z,100053.66
2022-12-06T14:12:21.430Z,100050.28
2022-12-06T14:14:56.922Z,100054.56
2022-12-06T14:17:59.320Z,100050.28
2022-12-06T14:20:26.203Z,100048.56
2022-12-06T14:22:53.353Z,100050.28
2022-12-06T14:25:22.082Z,100050.28
2022-12-06T14:27:52.927Z,100049.41
2022-12-06T14:30:26.339Z,100045.09
2022-12-06T14:32:55.962Z,100054.53
2022-12-06T14:35:30.190Z,100046.84
2022-12-06T14:38:02.978Z,100041.63
2022-12-06T14:40:59.446Z,100047.59
2022-12-06T14:43:29.701Z,100041.56
2022-12-06T14:45:59.002Z,100053.56
2022-12-06T14:48:26.299Z,100036.44
2022-12-06T14:50:59.561Z,100039.94
2022-12-06T14:53:31.259Z,100038.22
2022-12-06T14:56:23.046Z,100036.53
2022-12-06T14:58:50.148Z,100043.34
2022-12-06T15:01:21.448Z,100039.91
2022-12-06T15:04:09.094Z,100036.53
2022-12-06T15:06:38.099Z,100032.28
2022-12-06T15:09:13.408Z,100028.00
2022-12-06T15:12:01.964Z,100034.84
2022-12-06T15:14:46.990Z,100028.81
2022-12-06T15:17:14.009Z,100027.13
2022-12-06T15:19:47.499Z,100028.00
2022-12-06T15:22:25.271Z,100027.16
2022-12-06T15:24:57.946Z,100019.41
2022-12-06T15:27:27.189Z,100008.31
2022-12-06T15:29:54.650Z,100014.34
2022-12-06T15:32:24.089Z,100010.06
2022-12-06T15:34:51.119Z,100017.78
2022-12-06T15:40:05.917Z,100010.09
2022-12-06T15:42:33.002Z,100010.97
2022-12-06T15:45:00.283Z,99989.53
2022-12-06T15:47:27.480Z,100005.84
2022-12-06T15:49:58.410Z,100000.72
2022-12-06T15:52:26.947Z,100004.09
2022-12-06T15:54:54.127Z,100001.53
2022-12-06T15:57:21.172Z,99990.34
2022-12-06T15:59:48.199Z,100002.41
2022-12-06T16:02:17.299Z,100005.84
2022-12-06T16:04:45.543Z,100006.66
2022-12-06T16:07:19.131Z,100000.72
2022-12-06T16:09:47.098Z,100000.66
2022-12-06T16:12:14.077Z,99995.50
2022-12-06T16:14:41.248Z,99972.28
2022-12-06T16:17:08.768Z,99995.50
2022-12-06T16:19:54.170Z,99993.84
2022-12-06T16:22:41.132Z,99992.13
2022-12-06T16:25:08.556Z,99986.97
2022-12-06T16:27:35.719Z,99990.38
2022-12-06T16:30:04.935Z,99993.84
2022-12-06T16:32:31.979Z,99985.28
2022-12-06T16:34:59.243Z,99989.53
2022-12-06T16:37:26.627Z,99988.69
2022-12-06T16:39:53.626Z,99987.81
2022-12-06T16:42:20.645Z,99983.56
2022-12-06T16:44:53.716Z,99975.00
2022-12-06T16:49:49.810Z,99967.22
2022-12-06T16:52:17.499Z,99971.63
2022-12-06T16:54:44.587Z,99983.56
2022-12-06T16:57:12.878Z,99973.31
2022-12-06T16:59:40.737Z,99975.03
2022-12-06T17:02:26.728Z,99976.75
2022-12-06T17:04:54.839Z,99975.00
2022-12-06T17:07:21.957Z,99969.84
2022-12-06T17:09:49.166Z,99969.91
2022-12-06T17:12:16.273Z,99972.44
2022-12-06T17:14:43.728Z,99963.06
2022-12-06T17:17:15.849Z,99965.63
2022-12-06T17:19:43.630Z,99969.91
2022-12-06T17:22:12.338Z,99961.34
2022-12-06T17:24:39.730Z,99966.44
2022-12-06T17:27:09.199Z,99970.66
2022-12-06T17:29:36.887Z,99979.22
2022-12-06T17:32:04.039Z,99973.19
2022-12-06T17:34:31.411Z,99972.31
2022-12-06T17:36:59.151Z,99976.63
2022-12-06T17:39:26.689Z,99986.03
2022-12-06T17:42:12.339Z,99981.75
2022-12-06T17:44:40.187Z,99984.25
2022-12-06T17:47:07.522Z,99980.00
2022-12-06T17:49:36.331Z,99982.56
2022-12-06T17:52:03.574Z,99974.84
2022-12-06T17:54:30.726Z,99963.69
2022-12-06T17:56:57.836Z,99968.84
2022-12-06T17:59:28.079Z,99974.84
2022-12-06T18:02:19.378Z,99973.06
2022-12-06T18:04:47.716Z,99966.22
2022-12-06T18:07:15.738Z,99963.66
2022-12-06T18:09:42.870Z,99959.38
2022-12-06T18:12:11.812Z,99967.94
2022-12-06T18:14:38.870Z,99966.22
2022-12-06T18:17:05.918Z,99967.91
2022-12-06T18:19:33.670Z,99968.75
2022-12-06T18:22:00.728Z,99964.44
2022-12-06T18:24:33.467Z,99961.09
2022-12-06T18:27:02.598Z,99969.56
2022-12-06T18:29:29.770Z,99966.16
2022-12-06T18:31:57.418Z,99970.38
2022-12-06T18:34:24.897Z,99973.78
2022-12-06T18:36:52.327Z,99960.09
2022-12-06T18:39:24.827Z,99971.25
2022-12-06T18:41:54.086Z,99963.50
2022-12-06T18:44:21.746Z,99960.97
2022-12-06T18:46:48.826Z,99957.53
2022-12-06T18:49:15.960Z,99957.59
2022-12-06T18:51:43.028Z,99961.84
2022-12-06T18:54:14.024Z,99962.66
2022-12-06T18:56:42.018Z,99957.50
2022-12-06T18:59:10.830Z,99959.22
2022-12-06T19:01:39.686Z,99956.66
2022-12-06T19:04:08.389Z,99954.09
2022-12-06T19:06:37.899Z,99949.78
2022-12-06T19:09:07.785Z,99950.66
2022-12-06T19:11:39.558Z,99947.28
2022-12-06T19:14:07.119Z,99942.16
2022-12-06T19:16:40.568Z,99939.63
2022-12-06T19:19:15.743Z,99936.97
2022-12-06T19:21:45.081Z,99935.28
2022-12-06T19:24:14.062Z,99942.09
2022-12-06T19:26:41.158Z,99938.69
2022-12-06T19:29:08.492Z,99931.81
2022-12-06T19:31:36.091Z,99931.78
2022-12-06T19:34:03.419Z,99933.56
2022-12-06T19:36:31.848Z,99924.06
2022-12-06T19:39:01.198Z,99925.78
2022-12-06T19:41:28.922Z,99914.72
2022-12-06T19:44:14.887Z,99912.97
2022-12-06T19:46:43.399Z,99914.72
2022-12-06T19:49:11.669Z,99919.81
2022-12-06T19:51:41.699Z,99924.97
2022-12-06T19:54:10.609Z,99914.72
2022-12-06T19:56:39.027Z,99916.41
2022-12-06T19:59:11.893Z,99913.00
2022-12-06T20:01:48.970Z,99916.47
2022-12-06T20:04:22.235Z,99915.59
2022-12-06T20:06:50.460Z,99918.16
2022-12-06T20:09:18.918Z,99909.63
2022-12-06T20:12:02.640Z,99908.72
2022-12-06T20:14:33.163Z,99902.78
2022-12-06T20:17:00.220Z,99897.59
2022-12-06T20:19:27.368Z,99907.81
2022-12-06T20:21:54.461Z,99902.72
2022-12-06T20:24:22.477Z,99901.00
2022-12-06T20:26:51.742Z,99897.50
2022-12-06T20:29:19.971Z,99900.88
2022-12-06T20:31:50.365Z,99904.28
2022-12-06T20:34:18.291Z,99899.97
2022-12-06T20:36:45.428Z,99905.94
2022-12-06T20:39:35.496Z,99896.47
2022-12-06T20:42:03.668Z,99900.75
2022-12-06T20:44:31.048Z,99887.06
2022-12-06T20:46:58.297Z,99888.81
2022-12-06T20:49:28.332Z,99872.44
2022-12-06T20:51:55.708Z,99888.81
2022-12-06T20:54:22.790Z,99869.97
2022-12-06T20:56:53.667Z,99880.22
2022-12-06T20:59:21.343Z,99874.19
2022-12-06T21:01:48.581Z,99872.44
2022-12-06T21:04:16.112Z,99871.63
2022-12-06T21:06:43.342Z,99877.56
2022-12-06T21:09:10.490Z,99867.31
2022-12-06T21:11:37.862Z,99866.41
2022-12-06T21:14:06.082Z,99866.47
2022-12-06T21:16:35.191Z,99865.53
2022-12-06T21:19:08.275Z,99863.81
2022-12-06T21:21:38.098Z,99864.72
2022-12-06T21:24:07.932Z,99866.38
2022-12-06T21:26:35.402Z,99869.78
2022-12-06T21:29:02.669Z,99857.78
2022-12-06T21:31:32.198Z,99861.31
2022-12-06T21:33:59.428Z,99866.38
2022-12-06T21:36:26.622Z,99865.56
2022-12-06T21:38:54.073Z,99859.56
2022-12-06T21:41:22.410Z,99865.56
2022-12-06T21:43:50.046Z,99858.72
2022-12-06T21:46:20.466Z,99859.53
2022-12-06T21:48:51.932Z,99856.16
2022-12-06T21:51:20.108Z,99856.16
2022-12-06T21:53:47.613Z,99853.53
2022-12-06T21:56:18.303Z,99855.22
2022-12-06T21:58:46.201Z,99854.34
2022-12-06T22:01:15.987Z,99856.00
2022-12-06T22:03:43.727Z,99857.59
2022-12-06T22:06:12.479Z,99851.66
2022-12-06T22:08:41.172Z,99854.19
2022-12-06T22:11:19.446Z,99849.94
2022-12-06T22:13:48.329Z,99841.44
2022-12-06T22:16:16.358Z,99833.66
2022-12-06T22:18:45.769Z,99833.59
2022-12-06T22:21:16.831Z,99834.38
2022-12-06T22:23:44.698Z,99830.09
2022-12-06T22:26:15.460Z,99824.94
2022-12-06T22:28:42.587Z,99824.94
2022-12-06T22:31:12.507Z,99820.66
2022-12-06T22:33:40.330Z,99802.69
2022-12-06T22:36:08.818Z,99809.63
2022-12-06T22:38:36.249Z,99805.34
2022-12-06T22:41:04.005Z,99813.81
2022-12-06T22:43:31.459Z,99816.34
2022-12-06T22:46:11.350Z,99816.34
2022-12-06T22:48:39.218Z,99813.81
2022-12-06T22:51:18.072Z,99811.25
2022-12-06T22:53:47.789Z,99811.25
2022-12-06T22:56:15.821Z,99811.19
2022-12-06T22:58:42.897Z,99806.09
2022-12-06T23:01:16.963Z,99797.56
2022-12-06T23:03:49.102Z,99800.16
2022-12-06T23:06:18.158Z,99804.44
2022-12-06T23:08:45.990Z,99795.94
2022-12-06T23:11:22.026Z,99789.13
2022-12-06T23:13:49.092Z,99774.63
2022-12-06T23:16:21.327Z,99787.47
2022-12-06T23:18:48.808Z,99787.44
2022-12-06T23:21:21.547Z,99790.88
2022-12-06T23:23:55.003Z,99782.38
2022-12-06T23:26:25.361Z,99784.03
2022-12-06T23:28:52.800Z,99782.38
2022-12-06T23:31:25.458Z,99779.78
2022-12-06T23:34:01.359Z,99777.19
2022-12-06T23:36:30.647Z,99757.50
2022-12-06T23:38:58.083Z,99778.94
2022-12-06T23:41:27.506Z,99777.28
2022-12-06T23:43:55.728Z,99773.03
2022-12-06T23:46:25.642Z,99768.81
2022-12-06T23:48:53.417Z,99775.72
2022-12-06T23:51:25.889Z,99768.88
2022-12-06T23:53:57.624Z,99776.66
2022-12-06T23:56:29.151Z,99763.84
2022-12-06T23:58:57.152Z,99760.50
